sensor_id;sensor_type;location;lat;lon;timestamp;P1;durP1;ratioP1;P2;durP2;ratioP2
9160;SDS011;4615;51.340;8.288;2023-11-19T00:01:52;1.00;;;1.00;;
9160;SDS011;4615;51.340;8.288;2023-11-19T00:04:19;1.57;;;1.00;;
9160;SDS011;4615;51.340;8.288;2023-11-19T00:06:46;1.13;;;1.10;;
9160;SDS011;4615;51.340;8.288;2023-11-19T00:09:13;2.20;;;1.10;;
9160;SDS011;4615;51.340;8.288;2023-11-19T00:11:41;1.38;;;1.08;;
9160;SDS011;4615;51.340;8.288;2023-11-19T00:14:08;0.98;;;0.98;;
9160;SDS011;4615;51.340;8.288;2023-11-19T00:16:34;1.33;;;1.15;;
9160;SDS011;4615;51.340;8.288;2023-11-19T00:19:00;1.70;;;1.10;;
9160;SDS011;4615;51.340;8.288;2023-11-19T00:21:29;1.05;;;1.05;;
9160;SDS011;4615;51.340;8.288;2023-11-19T00:23:56;1.60;;;1.10;;
9160;SDS011;4615;51.340;8.288;2023-11-19T00:26:23;1.20;;;1.10;;
9160;SDS011;4615;51.340;8.288;2023-11-19T00:28:50;1.00;;;1.00;;
9160;SDS011;4615;51.340;8.288;2023-11-19T00:31:17;1.00;;;1.00;;
9160;SDS011;4615;51.340;8.288;2023-11-19T00:33:44;1.10;;;1.10;;
9160;SDS011;4615;51.340;8.288;2023-11-19T00:36:11;1.10;;;1.10;;
9160;SDS011;4615;51.340;8.288;2023-11-19T00:38:38;1.00;;;1.00;;
9160;SDS011;4615;51.340;8.288;2023-11-19T00:41:05;1.10;;;1.00;;
9160;SDS011;4615;51.340;8.288;2023-11-19T00:43:32;1.20;;;1.10;;
9160;SDS011;4615;51.340;8.288;2023-11-19T00:45:58;1.10;;;1.10;;
9160;SDS011;4615;51.340;8.288;2023-11-19T00:48:25;1.30;;;1.00;;
9160;SDS011;4615;51.340;8.288;2023-11-19T00:50:53;1.20;;;1.10;;
9160;SDS011;4615;51.340;8.288;2023-11-19T00:53:19;1.05;;;1.05;;
9160;SDS011;4615;51.340;8.288;2023-11-19T00:55:46;1.20;;;1.10;;
9160;SDS011;4615;51.340;8.288;2023-11-19T00:58:14;1.10;;;1.10;;
9160;SDS011;4615;51.340;8.288;2023-11-19T01:00:40;1.10;;;1.10;;
9160;SDS011;4615;51.340;8.288;2023-11-19T01:03:08;1.20;;;1.10;;
9160;SDS011;4615;51.340;8.288;2023-11-19T01:05:34;1.10;;;1.10;;
9160;SDS011;4615;51.340;8.288;2023-11-19T01:08:00;1.10;;;1.10;;
9160;SDS011;4615;51.340;8.288;2023-11-19T01:10:29;1.40;;;1.30;;
9160;SDS011;4615;51.340;8.288;2023-11-19T01:12:56;1.10;;;1.10;;
9160;SDS011;4615;51.340;8.288;2023-11-19T01:15:23;1.10;;;1.10;;
9160;SDS011;4615;51.340;8.288;2023-11-19T01:17:50;1.20;;;1.20;;
9160;SDS011;4615;51.340;8.288;2023-11-19T01:20:16;1.20;;;1.10;;
9160;SDS011;4615;51.340;8.288;2023-11-19T01:22:42;1.00;;;1.00;;
9160;SDS011;4615;51.340;8.288;2023-11-19T01:25:09;1.45;;;1.10;;
9160;SDS011;4615;51.340;8.288;2023-11-19T01:27:36;2.20;;;1.23;;
9160;SDS011;4615;51.340;8.288;2023-11-19T01:30:02;1.15;;;1.13;;
9160;SDS011;4615;51.340;8.288;2023-11-19T01:32:30;1.65;;;1.20;;
9160;SDS011;4615;51.340;8.288;2023-11-19T01:34:57;1.50;;;1.20;;
9160;SDS011;4615;51.340;8.288;2023-11-19T01:37:23;1.30;;;1.20;;
9160;SDS011;4615;51.340;8.288;2023-11-19T01:39:49;1.50;;;1.40;;
9160;SDS011;4615;51.340;8.288;2023-11-19T01:42:16;1.50;;;1.40;;
9160;SDS011;4615;51.340;8.288;2023-11-19T01:44:42;1.60;;;1.30;;
9160;SDS011;4615;51.340;8.288;2023-11-19T01:47:08;1.75;;;1.45;;
9160;SDS011;4615;51.340;8.288;2023-11-19T01:49:36;1.55;;;1.45;;
9160;SDS011;4615;51.340;8.288;2023-11-19T01:52:03;1.60;;;1.50;;
9160;SDS011;4615;51.340;8.288;2023-11-19T01:54:29;1.42;;;1.33;;
9160;SDS011;4615;51.340;8.288;2023-11-19T01:56:58;2.00;;;1.70;;
9160;SDS011;4615;51.340;8.288;2023-11-19T01:59:26;1.50;;;1.40;;
9160;SDS011;4615;51.340;8.288;2023-11-19T02:01:52;1.60;;;1.50;;
9160;SDS011;4615;51.340;8.288;2023-11-19T02:04:21;1.90;;;1.80;;
9160;SDS011;4615;51.340;8.288;2023-11-19T02:06:49;1.80;;;1.70;;
9160;SDS011;4615;51.340;8.288;2023-11-19T02:09:18;2.33;;;1.60;;
9160;SDS011;4615;51.340;8.288;2023-11-19T02:11:45;2.00;;;1.80;;
9160;SDS011;4615;51.340;8.288;2023-11-19T02:14:14;1.70;;;1.60;;
9160;SDS011;4615;51.340;8.288;2023-11-19T02:16:40;1.50;;;1.40;;
9160;SDS011;4615;51.340;8.288;2023-11-19T02:19:07;1.60;;;1.50;;
9160;SDS011;4615;51.340;8.288;2023-11-19T02:21:35;1.50;;;1.40;;
9160;SDS011;4615;51.340;8.288;2023-11-19T02:24:03;2.00;;;1.55;;
9160;SDS011;4615;51.340;8.288;2023-11-19T02:26:33;1.50;;;1.40;;
9160;SDS011;4615;51.340;8.288;2023-11-19T02:29:02;1.50;;;1.40;;
9160;SDS011;4615;51.340;8.288;2023-11-19T02:31:29;1.43;;;1.33;;
9160;SDS011;4615;51.340;8.288;2023-11-19T02:33:55;1.40;;;1.30;;
9160;SDS011;4615;51.340;8.288;2023-11-19T02:36:22;1.40;;;1.30;;
9160;SDS011;4615;51.340;8.288;2023-11-19T02:38:48;1.13;;;1.13;;
9160;SDS011;4615;51.340;8.288;2023-11-19T02:41:14;1.20;;;1.20;;
9160;SDS011;4615;51.340;8.288;2023-11-19T02:43:41;1.30;;;1.20;;
9160;SDS011;4615;51.340;8.288;2023-11-19T02:46:08;1.23;;;1.20;;
9160;SDS011;4615;51.340;8.288;2023-11-19T02:48:36;1.20;;;1.10;;
9160;SDS011;4615;51.340;8.288;2023-11-19T02:51:02;1.20;;;1.10;;
9160;SDS011;4615;51.340;8.288;2023-11-19T02:53:29;1.10;;;1.10;;
9160;SDS011;4615;51.340;8.288;2023-11-19T02:55:56;1.30;;;1.20;;
9160;SDS011;4615;51.340;8.288;2023-11-19T02:58:26;1.20;;;1.20;;
9160;SDS011;4615;51.340;8.288;2023-11-19T03:00:53;1.40;;;1.30;;
9160;SDS011;4615;51.340;8.288;2023-11-19T03:03:24;2.50;;;1.40;;
9160;SDS011;4615;51.340;8.288;2023-11-19T03:05:54;1.40;;;1.30;;
9160;SDS011;4615;51.340;8.288;2023-11-19T03:08:20;1.87;;;1.30;;
9160;SDS011;4615;51.340;8.288;2023-11-19T03:10:47;1.50;;;1.40;;
9160;SDS011;4615;51.340;8.288;2023-11-19T03:13:14;1.65;;;1.50;;
9160;SDS011;4615;51.340;8.288;2023-11-19T03:15:40;1.75;;;1.52;;
9160;SDS011;4615;51.340;8.288;2023-11-19T03:18:06;2.00;;;1.70;;
9160;SDS011;4615;51.340;8.288;2023-11-19T03:20:34;2.45;;;1.90;;
9160;SDS011;4615;51.340;8.288;2023-11-19T03:23:01;2.75;;;2.05;;
9160;SDS011;4615;51.340;8.288;2023-11-19T03:25:27;2.72;;;2.17;;
9160;SDS011;4615;51.340;8.288;2023-11-19T03:27:58;2.60;;;2.10;;
9160;SDS011;4615;51.340;8.288;2023-11-19T03:30:25;2.80;;;2.22;;
9160;SDS011;4615;51.340;8.288;2023-11-19T03:32:51;3.45;;;2.30;;
9160;SDS011;4615;51.340;8.288;2023-11-19T03:35:17;2.95;;;2.45;;
9160;SDS011;4615;51.340;8.288;2023-11-19T03:37:45;3.25;;;2.40;;
9160;SDS011;4615;51.340;8.288;2023-11-19T03:40:11;3.55;;;2.45;;
9160;SDS011;4615;51.340;8.288;2023-11-19T03:42:38;4.05;;;2.30;;
9160;SDS011;4615;51.340;8.288;2023-11-19T03:45:05;4.50;;;2.50;;
9160;SDS011;4615;51.340;8.288;2023-11-19T03:47:33;3.77;;;2.60;;
9160;SDS011;4615;51.340;8.288;2023-11-19T03:49:59;3.75;;;2.70;;
9160;SDS011;4615;51.340;8.288;2023-11-19T03:52:26;4.03;;;2.55;;
9160;SDS011;4615;51.340;8.288;2023-11-19T03:54:54;5.00;;;2.63;;
9160;SDS011;4615;51.340;8.288;2023-11-19T03:57:21;5.97;;;2.80;;
9160;SDS011;4615;51.340;8.288;2023-11-19T03:59:48;7.32;;;3.22;;
9160;SDS011;4615;51.340;8.288;2023-11-19T04:02:14;7.47;;;2.88;;
9160;SDS011;4615;51.340;8.288;2023-11-19T04:04:41;4.65;;;2.55;;
9160;SDS011;4615;51.340;8.288;2023-11-19T04:07:07;5.88;;;2.80;;
9160;SDS011;4615;51.340;8.288;2023-11-19T04:09:34;6.90;;;3.00;;
9160;SDS011;4615;51.340;8.288;2023-11-19T04:12:04;6.63;;;2.90;;
9160;SDS011;4615;51.340;8.288;2023-11-19T04:14:30;7.90;;;3.27;;
9160;SDS011;4615;51.340;8.288;2023-11-19T04:16:57;8.25;;;2.92;;
9160;SDS011;4615;51.340;8.288;2023-11-19T04:19:23;7.78;;;3.15;;
9160;SDS011;4615;51.340;8.288;2023-11-19T04:21:49;8.27;;;2.85;;
9160;SDS011;4615;51.340;8.288;2023-11-19T04:24:17;9.18;;;3.40;;
9160;SDS011;4615;51.340;8.288;2023-11-19T04:26:44;8.20;;;2.92;;
9160;SDS011;4615;51.340;8.288;2023-11-19T04:29:13;6.97;;;3.00;;
9160;SDS011;4615;51.340;8.288;2023-11-19T04:31:42;8.25;;;3.25;;
9160;SDS011;4615;51.340;8.288;2023-11-19T04:34:09;9.45;;;3.17;;
9160;SDS011;4615;51.340;8.288;2023-11-19T04:36:36;9.45;;;3.10;;
9160;SDS011;4615;51.340;8.288;2023-11-19T04:39:04;7.90;;;3.00;;
9160;SDS011;4615;51.340;8.288;2023-11-19T04:41:34;7.03;;;2.60;;
9160;SDS011;4615;51.340;8.288;2023-11-19T04:44:00;7.75;;;2.80;;
9160;SDS011;4615;51.340;8.288;2023-11-19T04:46:28;7.97;;;3.03;;
9160;SDS011;4615;51.340;8.288;2023-11-19T04:48:54;11.83;;;3.27;;
9160;SDS011;4615;51.340;8.288;2023-11-19T04:51:21;8.20;;;2.80;;
9160;SDS011;4615;51.340;8.288;2023-11-19T04:53:47;7.43;;;2.70;;
9160;SDS011;4615;51.340;8.288;2023-11-19T04:56:13;6.57;;;2.70;;
9160;SDS011;4615;51.340;8.288;2023-11-19T04:58:41;7.97;;;2.83;;
9160;SDS011;4615;51.340;8.288;2023-11-19T05:01:12;9.18;;;2.92;;
9160;SDS011;4615;51.340;8.288;2023-11-19T05:03:40;10.05;;;2.95;;
9160;SDS011;4615;51.340;8.288;2023-11-19T05:06:07;9.07;;;2.83;;
9160;SDS011;4615;51.340;8.288;2023-11-19T05:08:34;5.82;;;2.63;;
9160;SDS011;4615;51.340;8.288;2023-11-19T05:11:01;8.03;;;2.70;;
9160;SDS011;4615;51.340;8.288;2023-11-19T05:13:28;7.47;;;2.95;;
9160;SDS011;4615;51.340;8.288;2023-11-19T05:15:54;9.88;;;2.97;;
9160;SDS011;4615;51.340;8.288;2023-11-19T05:18:21;8.57;;;2.90;;
9160;SDS011;4615;51.340;8.288;2023-11-19T05:20:48;8.70;;;3.10;;
9160;SDS011;4615;51.340;8.288;2023-11-19T05:23:15;8.25;;;2.80;;
9160;SDS011;4615;51.340;8.288;2023-11-19T05:25:41;7.47;;;2.80;;
9160;SDS011;4615;51.340;8.288;2023-11-19T05:28:08;10.85;;;3.20;;
9160;SDS011;4615;51.340;8.288;2023-11-19T05:30:34;10.67;;;3.50;;
9160;SDS011;4615;51.340;8.288;2023-11-19T05:33:00;9.88;;;3.22;;
9160;SDS011;4615;51.340;8.288;2023-11-19T05:35:27;12.03;;;3.60;;
9160;SDS011;4615;51.340;8.288;2023-11-19T05:37:54;10.15;;;3.58;;
9160;SDS011;4615;51.340;8.288;2023-11-19T05:40:21;10.73;;;3.53;;
9160;SDS011;4615;51.340;8.288;2023-11-19T05:42:48;10.52;;;3.50;;
9160;SDS011;4615;51.340;8.288;2023-11-19T05:45:14;10.37;;;3.10;;
9160;SDS011;4615;51.340;8.288;2023-11-19T05:47:41;9.10;;;3.03;;
9160;SDS011;4615;51.340;8.288;2023-11-19T05:50:07;10.15;;;3.20;;
9160;SDS011;4615;51.340;8.288;2023-11-19T05:52:35;10.57;;;3.65;;
9160;SDS011;4615;51.340;8.288;2023-11-19T05:55:03;12.27;;;3.53;;
9160;SDS011;4615;51.340;8.288;2023-11-19T05:57:34;16.23;;;4.03;;
9160;SDS011;4615;51.340;8.288;2023-11-19T06:00:00;11.50;;;3.83;;
9160;SDS011;4615;51.340;8.288;2023-11-19T06:02:28;11.18;;;3.90;;
9160;SDS011;4615;51.340;8.288;2023-11-19T06:04:54;12.98;;;3.65;;
9160;SDS011;4615;51.340;8.288;2023-11-19T06:07:21;10.80;;;3.70;;
9160;SDS011;4615;51.340;8.288;2023-11-19T06:09:47;12.43;;;3.92;;
9160;SDS011;4615;51.340;8.288;2023-11-19T06:12:15;13.35;;;3.53;;
9160;SDS011;4615;51.340;8.288;2023-11-19T06:14:41;13.67;;;3.90;;
9160;SDS011;4615;51.340;8.288;2023-11-19T06:17:07;14.30;;;3.97;;
9160;SDS011;4615;51.340;8.288;2023-11-19T06:19:36;12.67;;;3.97;;
9160;SDS011;4615;51.340;8.288;2023-11-19T06:22:02;13.23;;;3.97;;
9160;SDS011;4615;51.340;8.288;2023-11-19T06:24:29;12.75;;;3.92;;
9160;SDS011;4615;51.340;8.288;2023-11-19T06:26:55;14.20;;;4.22;;
9160;SDS011;4615;51.340;8.288;2023-11-19T06:29:23;11.88;;;3.70;;
9160;SDS011;4615;51.340;8.288;2023-11-19T06:31:49;12.18;;;3.70;;
9160;SDS011;4615;51.340;8.288;2023-11-19T06:34:16;14.27;;;3.80;;
9160;SDS011;4615;51.340;8.288;2023-11-19T06:36:42;14.13;;;4.10;;
9160;SDS011;4615;51.340;8.288;2023-11-19T06:39:09;12.55;;;3.55;;
9160;SDS011;4615;51.340;8.288;2023-11-19T06:41:36;12.45;;;3.67;;
9160;SDS011;4615;51.340;8.288;2023-11-19T06:44:02;16.40;;;4.40;;
9160;SDS011;4615;51.340;8.288;2023-11-19T06:46:31;12.93;;;4.00;;
9160;SDS011;4615;51.340;8.288;2023-11-19T06:48:57;13.93;;;4.00;;
9160;SDS011;4615;51.340;8.288;2023-11-19T06:51:23;14.75;;;4.18;;
9160;SDS011;4615;51.340;8.288;2023-11-19T06:53:50;12.87;;;4.20;;
9160;SDS011;4615;51.340;8.288;2023-11-19T06:56:20;15.35;;;4.22;;
9160;SDS011;4615;51.340;8.288;2023-11-19T06:58:46;14.55;;;4.55;;
9160;SDS011;4615;51.340;8.288;2023-11-19T07:01:13;13.95;;;4.35;;
9160;SDS011;4615;51.340;8.288;2023-11-19T07:03:41;12.90;;;4.38;;
9160;SDS011;4615;51.340;8.288;2023-11-19T07:06:07;13.48;;;4.38;;
9160;SDS011;4615;51.340;8.288;2023-11-19T07:08:34;13.13;;;4.45;;
9160;SDS011;4615;51.340;8.288;2023-11-19T07:11:01;15.68;;;4.43;;
9160;SDS011;4615;51.340;8.288;2023-11-19T07:13:28;14.63;;;4.63;;
9160;SDS011;4615;51.340;8.288;2023-11-19T07:15:55;14.40;;;4.38;;
9160;SDS011;4615;51.340;8.288;2023-11-19T07:18:21;12.95;;;4.00;;
9160;SDS011;4615;51.340;8.288;2023-11-19T07:20:49;13.93;;;4.90;;
9160;SDS011;4615;51.340;8.288;2023-11-19T07:23:16;16.65;;;5.03;;
9160;SDS011;4615;51.340;8.288;2023-11-19T07:25:42;14.77;;;4.25;;
9160;SDS011;4615;51.340;8.288;2023-11-19T07:28:10;14.97;;;4.67;;
9160;SDS011;4615;51.340;8.288;2023-11-19T07:30:36;14.93;;;4.22;;
9160;SDS011;4615;51.340;8.288;2023-11-19T07:33:03;15.45;;;4.38;;
9160;SDS011;4615;51.340;8.288;2023-11-19T07:35:31;14.18;;;4.13;;
9160;SDS011;4615;51.340;8.288;2023-11-19T07:37:58;15.53;;;4.43;;
9160;SDS011;4615;51.340;8.288;2023-11-19T07:40:25;15.93;;;4.28;;
9160;SDS011;4615;51.340;8.288;2023-11-19T07:42:51;15.57;;;4.72;;
9160;SDS011;4615;51.340;8.288;2023-11-19T07:45:19;11.45;;;4.22;;
9160;SDS011;4615;51.340;8.288;2023-11-19T07:47:45;13.38;;;4.32;;
9160;SDS011;4615;51.340;8.288;2023-11-19T07:50:11;14.85;;;4.47;;
9160;SDS011;4615;51.340;8.288;2023-11-19T07:52:39;13.65;;;3.95;;
9160;SDS011;4615;51.340;8.288;2023-11-19T07:55:08;12.80;;;4.20;;
9160;SDS011;4615;51.340;8.288;2023-11-19T07:57:34;13.93;;;4.10;;
9160;SDS011;4615;51.340;8.288;2023-11-19T08:00:02;13.98;;;3.97;;
9160;SDS011;4615;51.340;8.288;2023-11-19T08:02:28;15.27;;;4.15;;
9160;SDS011;4615;51.340;8.288;2023-11-19T08:04:54;15.40;;;3.80;;
9160;SDS011;4615;51.340;8.288;2023-11-19T08:07:21;13.35;;;4.45;;
9160;SDS011;4615;51.340;8.288;2023-11-19T08:09:48;13.90;;;4.55;;
9160;SDS011;4615;51.340;8.288;2023-11-19T08:12:15;14.00;;;4.60;;
9160;SDS011;4615;51.340;8.288;2023-11-19T08:14:42;15.30;;;4.72;;
9160;SDS011;4615;51.340;8.288;2023-11-19T08:17:09;16.98;;;4.53;;
9160;SDS011;4615;51.340;8.288;2023-11-19T08:19:35;14.50;;;4.63;;
9160;SDS011;4615;51.340;8.288;2023-11-19T08:22:02;13.38;;;4.18;;
9160;SDS011;4615;51.340;8.288;2023-11-19T08:24:28;12.85;;;3.70;;
9160;SDS011;4615;51.340;8.288;2023-11-19T08:26:55;15.32;;;4.35;;
9160;SDS011;4615;51.340;8.288;2023-11-19T08:29:22;16.02;;;4.60;;
9160;SDS011;4615;51.340;8.288;2023-11-19T08:31:49;14.15;;;4.55;;
9160;SDS011;4615;51.340;8.288;2023-11-19T08:34:16;13.98;;;4.20;;
9160;SDS011;4615;51.340;8.288;2023-11-19T08:36:42;13.27;;;4.45;;
9160;SDS011;4615;51.340;8.288;2023-11-19T08:39:08;15.25;;;4.40;;
9160;SDS011;4615;51.340;8.288;2023-11-19T08:41:35;14.90;;;4.20;;
9160;SDS011;4615;51.340;8.288;2023-11-19T08:44:03;16.63;;;4.60;;
9160;SDS011;4615;51.340;8.288;2023-11-19T08:46:31;17.05;;;4.80;;
9160;SDS011;4615;51.340;8.288;2023-11-19T08:48:57;15.75;;;4.35;;
9160;SDS011;4615;51.340;8.288;2023-11-19T08:51:25;18.45;;;4.35;;
9160;SDS011;4615;51.340;8.288;2023-11-19T08:53:53;16.85;;;4.30;;
9160;SDS011;4615;51.340;8.288;2023-11-19T08:56:20;15.97;;;4.47;;
9160;SDS011;4615;51.340;8.288;2023-11-19T08:58:46;17.83;;;4.97;;
9160;SDS011;4615;51.340;8.288;2023-11-19T09:01:13;18.27;;;5.25;;
9160;SDS011;4615;51.340;8.288;2023-11-19T09:03:40;16.38;;;4.68;;
9160;SDS011;4615;51.340;8.288;2023-11-19T09:06:07;15.32;;;4.60;;
9160;SDS011;4615;51.340;8.288;2023-11-19T09:08:33;16.60;;;4.22;;
9160;SDS011;4615;51.340;8.288;2023-11-19T09:11:00;14.50;;;4.82;;
9160;SDS011;4615;51.340;8.288;2023-11-19T09:13:26;15.20;;;4.75;;
9160;SDS011;4615;51.340;8.288;2023-11-19T09:15:52;19.23;;;5.15;;
9160;SDS011;4615;51.340;8.288;2023-11-19T09:18:19;15.70;;;4.85;;
9160;SDS011;4615;51.340;8.288;2023-11-19T09:20:47;15.73;;;5.20;;
9160;SDS011;4615;51.340;8.288;2023-11-19T09:23:13;15.55;;;4.38;;
9160;SDS011;4615;51.340;8.288;2023-11-19T09:25:39;16.27;;;4.68;;
9160;SDS011;4615;51.340;8.288;2023-11-19T09:28:06;17.35;;;4.80;;
9160;SDS011;4615;51.340;8.288;2023-11-19T09:30:33;16.17;;;4.68;;
9160;SDS011;4615;51.340;8.288;2023-11-19T09:33:00;13.57;;;4.50;;
9160;SDS011;4615;51.340;8.288;2023-11-19T09:35:26;14.00;;;4.60;;
9160;SDS011;4615;51.340;8.288;2023-11-19T09:37:54;17.90;;;5.05;;
9160;SDS011;4615;51.340;8.288;2023-11-19T09:40:20;17.17;;;5.10;;
9160;SDS011;4615;51.340;8.288;2023-11-19T09:42:47;15.77;;;4.93;;
9160;SDS011;4615;51.340;8.288;2023-11-19T09:45:13;16.08;;;4.20;;
9160;SDS011;4615;51.340;8.288;2023-11-19T09:47:42;16.52;;;4.68;;
9160;SDS011;4615;51.340;8.288;2023-11-19T09:50:09;14.23;;;4.65;;
9160;SDS011;4615;51.340;8.288;2023-11-19T09:52:36;15.68;;;4.90;;
9160;SDS011;4615;51.340;8.288;2023-11-19T09:55:04;15.13;;;5.00;;
9160;SDS011;4615;51.340;8.288;2023-11-19T09:57:31;14.65;;;5.00;;
9160;SDS011;4615;51.340;8.288;2023-11-19T09:59:58;16.40;;;4.88;;
9160;SDS011;4615;51.340;8.288;2023-11-19T10:02:24;19.15;;;4.82;;
9160;SDS011;4615;51.340;8.288;2023-11-19T10:04:53;17.13;;;4.97;;
9160;SDS011;4615;51.340;8.288;2023-11-19T10:07:20;14.57;;;4.55;;
9160;SDS011;4615;51.340;8.288;2023-11-19T10:09:47;15.50;;;4.93;;
9160;SDS011;4615;51.340;8.288;2023-11-19T10:12:14;18.48;;;4.93;;
9160;SDS011;4615;51.340;8.288;2023-11-19T10:14:41;15.38;;;5.03;;
9160;SDS011;4615;51.340;8.288;2023-11-19T10:17:09;15.57;;;5.05;;
9160;SDS011;4615;51.340;8.288;2023-11-19T10:19:35;18.48;;;5.25;;
9160;SDS011;4615;51.340;8.288;2023-11-19T10:22:03;16.40;;;5.40;;
9160;SDS011;4615;51.340;8.288;2023-11-19T10:24:32;16.13;;;4.60;;
9160;SDS011;4615;51.340;8.288;2023-11-19T10:26:59;16.27;;;4.88;;
9160;SDS011;4615;51.340;8.288;2023-11-19T10:29:27;15.60;;;4.75;;
9160;SDS011;4615;51.340;8.288;2023-11-19T10:31:55;17.60;;;4.72;;
9160;SDS011;4615;51.340;8.288;2023-11-19T10:34:24;13.57;;;4.47;;
9160;SDS011;4615;51.340;8.288;2023-11-19T10:36:50;16.42;;;5.00;;
9160;SDS011;4615;51.340;8.288;2023-11-19T10:39:17;14.60;;;4.47;;
9160;SDS011;4615;51.340;8.288;2023-11-19T10:41:44;16.65;;;4.30;;
9160;SDS011;4615;51.340;8.288;2023-11-19T10:44:10;16.30;;;4.97;;
9160;SDS011;4615;51.340;8.288;2023-11-19T10:46:38;15.27;;;4.90;;
9160;SDS011;4615;51.340;8.288;2023-11-19T10:49:05;15.27;;;4.75;;
9160;SDS011;4615;51.340;8.288;2023-11-19T10:51:32;16.77;;;4.78;;
9160;SDS011;4615;51.340;8.288;2023-11-19T10:54:00;16.85;;;5.13;;
9160;SDS011;4615;51.340;8.288;2023-11-19T10:56:29;14.30;;;4.57;;
9160;SDS011;4615;51.340;8.288;2023-11-19T10:58:56;15.50;;;4.68;;
9160;SDS011;4615;51.340;8.288;2023-11-19T11:01:24;15.57;;;4.65;;
9160;SDS011;4615;51.340;8.288;2023-11-19T11:03:53;14.43;;;4.47;;
9160;SDS011;4615;51.340;8.288;2023-11-19T11:06:21;15.53;;;4.73;;
9160;SDS011;4615;51.340;8.288;2023-11-19T11:08:48;17.08;;;4.82;;
9160;SDS011;4615;51.340;8.288;2023-11-19T11:11:15;17.98;;;4.47;;
9160;SDS011;4615;51.340;8.288;2023-11-19T11:13:42;15.48;;;4.88;;
9160;SDS011;4615;51.340;8.288;2023-11-19T11:16:09;16.10;;;4.90;;
9160;SDS011;4615;51.340;8.288;2023-11-19T11:18:36;17.45;;;4.97;;
9160;SDS011;4615;51.340;8.288;2023-11-19T11:21:04;17.02;;;4.80;;
9160;SDS011;4615;51.340;8.288;2023-11-19T11:23:37;14.57;;;4.35;;
9160;SDS011;4615;51.340;8.288;2023-11-19T11:26:18;13.85;;;4.50;;
9160;SDS011;4615;51.340;8.288;2023-11-19T11:28:48;15.55;;;4.60;;
9160;SDS011;4615;51.340;8.288;2023-11-19T11:31:23;19.97;;;5.37;;
9160;SDS011;4615;51.340;8.288;2023-11-19T11:34:15;17.00;;;4.90;;
9160;SDS011;4615;51.340;8.288;2023-11-19T11:36:49;15.23;;;4.90;;
9160;SDS011;4615;51.340;8.288;2023-11-19T11:39:20;17.08;;;4.95;;
9160;SDS011;4615;51.340;8.288;2023-11-19T11:41:55;17.05;;;4.90;;
9160;SDS011;4615;51.340;8.288;2023-11-19T11:45:00;15.80;;;4.63;;
9160;SDS011;4615;51.340;8.288;2023-11-19T11:50:09;15.98;;;5.00;;
9160;SDS011;4615;51.340;8.288;2023-11-19T11:52:42;13.70;;;4.67;;
9160;SDS011;4615;51.340;8.288;2023-11-19T11:55:33;18.52;;;5.03;;
9160;SDS011;4615;51.340;8.288;2023-11-19T11:58:01;15.52;;;4.30;;
9160;SDS011;4615;51.340;8.288;2023-11-19T12:00:29;14.80;;;4.77;;
9160;SDS011;4615;51.340;8.288;2023-11-19T12:02:56;15.32;;;4.40;;
9160;SDS011;4615;51.340;8.288;2023-11-19T12:05:22;15.43;;;4.47;;
9160;SDS011;4615;51.340;8.288;2023-11-19T12:07:55;15.13;;;4.40;;
9160;SDS011;4615;51.340;8.288;2023-11-19T12:10:24;15.63;;;4.63;;
9160;SDS011;4615;51.340;8.288;2023-11-19T12:12:52;16.40;;;4.68;;
9160;SDS011;4615;51.340;8.288;2023-11-19T12:15:18;12.30;;;4.05;;
9160;SDS011;4615;51.340;8.288;2023-11-19T12:17:50;15.87;;;4.90;;
9160;SDS011;4615;51.340;8.288;2023-11-19T12:20:16;13.45;;;4.07;;
9160;SDS011;4615;51.340;8.288;2023-11-19T12:22:43;15.98;;;4.80;;
9160;SDS011;4615;51.340;8.288;2023-11-19T12:25:11;15.27;;;4.80;;
9160;SDS011;4615;51.340;8.288;2023-11-19T12:27:39;11.55;;;4.13;;
9160;SDS011;4615;51.340;8.288;2023-11-19T12:30:06;15.80;;;4.68;;
9160;SDS011;4615;51.340;8.288;2023-11-19T12:32:39;15.55;;;4.47;;
9160;SDS011;4615;51.340;8.288;2023-11-19T12:35:06;15.63;;;4.60;;
9160;SDS011;4615;51.340;8.288;2023-11-19T12:37:38;17.23;;;4.65;;
9160;SDS011;4615;51.340;8.288;2023-11-19T12:40:11;14.20;;;4.80;;
9160;SDS011;4615;51.340;8.288;2023-11-19T12:42:38;15.90;;;4.65;;
9160;SDS011;4615;51.340;8.288;2023-11-19T12:45:04;15.33;;;4.40;;
9160;SDS011;4615;51.340;8.288;2023-11-19T12:47:31;15.88;;;4.57;;
9160;SDS011;4615;51.340;8.288;2023-11-19T12:49:57;15.93;;;4.25;;
9160;SDS011;4615;51.340;8.288;2023-11-19T12:52:24;14.57;;;4.63;;
9160;SDS011;4615;51.340;8.288;2023-11-19T12:54:50;13.40;;;4.05;;
9160;SDS011;4615;51.340;8.288;2023-11-19T12:57:18;15.07;;;4.80;;
9160;SDS011;4615;51.340;8.288;2023-11-19T12:59:54;16.83;;;4.40;;
9160;SDS011;4615;51.340;8.288;2023-11-19T13:02:20;17.13;;;4.53;;
9160;SDS011;4615;51.340;8.288;2023-11-19T13:04:47;13.02;;;4.03;;
9160;SDS011;4615;51.340;8.288;2023-11-19T13:07:13;15.13;;;4.32;;
9160;SDS011;4615;51.340;8.288;2023-11-19T13:09:39;15.23;;;4.32;;
9160;SDS011;4615;51.340;8.288;2023-11-19T13:12:15;13.47;;;4.30;;
9160;SDS011;4615;51.340;8.288;2023-11-19T13:14:43;11.45;;;3.90;;
9160;SDS011;4615;51.340;8.288;2023-11-19T13:17:12;15.85;;;4.57;;
9160;SDS011;4615;51.340;8.288;2023-11-19T13:19:39;12.57;;;3.88;;
9160;SDS011;4615;51.340;8.288;2023-11-19T13:22:05;13.73;;;3.90;;
9160;SDS011;4615;51.340;8.288;2023-11-19T13:24:31;11.10;;;3.85;;
9160;SDS011;4615;51.340;8.288;2023-11-19T13:26:58;15.77;;;4.00;;
9160;SDS011;4615;51.340;8.288;2023-11-19T13:29:24;11.63;;;3.78;;
9160;SDS011;4615;51.340;8.288;2023-11-19T13:31:52;12.50;;;4.18;;
9160;SDS011;4615;51.340;8.288;2023-11-19T13:34:18;15.77;;;4.43;;
9160;SDS011;4615;51.340;8.288;2023-11-19T13:36:45;13.13;;;4.22;;
9160;SDS011;4615;51.340;8.288;2023-11-19T13:39:11;13.80;;;4.22;;
9160;SDS011;4615;51.340;8.288;2023-11-19T13:41:37;12.23;;;3.83;;
9160;SDS011;4615;51.340;8.288;2023-11-19T13:44:05;13.27;;;4.13;;
9160;SDS011;4615;51.340;8.288;2023-11-19T13:46:31;14.57;;;4.13;;
9160;SDS011;4615;51.340;8.288;2023-11-19T13:48:59;11.45;;;3.95;;
9160;SDS011;4615;51.340;8.288;2023-11-19T13:51:25;13.57;;;3.78;;
9160;SDS011;4615;51.340;8.288;2023-11-19T13:53:52;13.43;;;4.07;;
9160;SDS011;4615;51.340;8.288;2023-11-19T13:56:19;12.75;;;3.88;;
9160;SDS011;4615;51.340;8.288;2023-11-19T13:58:45;10.68;;;3.78;;
9160;SDS011;4615;51.340;8.288;2023-11-19T14:01:11;12.60;;;3.85;;
9160;SDS011;4615;51.340;8.288;2023-11-19T14:03:38;11.02;;;3.58;;
9160;SDS011;4615;51.340;8.288;2023-11-19T14:06:07;14.48;;;4.15;;
9160;SDS011;4615;51.340;8.288;2023-11-19T14:08:33;11.88;;;3.72;;
9160;SDS011;4615;51.340;8.288;2023-11-19T14:11:00;13.52;;;3.78;;
9160;SDS011;4615;51.340;8.288;2023-11-19T14:13:26;12.25;;;4.05;;
9160;SDS011;4615;51.340;8.288;2023-11-19T14:15:53;12.70;;;3.90;;
9160;SDS011;4615;51.340;8.288;2023-11-19T14:18:19;12.60;;;4.20;;
9160;SDS011;4615;51.340;8.288;2023-11-19T14:20:45;12.90;;;3.97;;
9160;SDS011;4615;51.340;8.288;2023-11-19T14:23:13;14.30;;;4.03;;
9160;SDS011;4615;51.340;8.288;2023-11-19T14:25:39;11.80;;;3.60;;
9160;SDS011;4615;51.340;8.288;2023-11-19T14:28:06;11.52;;;3.55;;
9160;SDS011;4615;51.340;8.288;2023-11-19T14:30:32;12.45;;;3.78;;
9160;SDS011;4615;51.340;8.288;2023-11-19T14:32:59;12.45;;;3.80;;
9160;SDS011;4615;51.340;8.288;2023-11-19T14:35:25;12.70;;;3.90;;
9160;SDS011;4615;51.340;8.288;2023-11-19T14:37:52;11.15;;;3.60;;
9160;SDS011;4615;51.340;8.288;2023-11-19T14:40:19;11.32;;;3.22;;
9160;SDS011;4615;51.340;8.288;2023-11-19T14:42:46;12.27;;;3.55;;
9160;SDS011;4615;51.340;8.288;2023-11-19T14:45:13;11.38;;;3.55;;
9160;SDS011;4615;51.340;8.288;2023-11-19T14:47:39;12.45;;;3.72;;
9160;SDS011;4615;51.340;8.288;2023-11-19T14:50:06;13.00;;;4.05;;
9160;SDS011;4615;51.340;8.288;2023-11-19T14:52:34;12.32;;;4.07;;
9160;SDS011;4615;51.340;8.288;2023-11-19T14:55:00;13.68;;;4.20;;
9160;SDS011;4615;51.340;8.288;2023-11-19T14:57:28;13.38;;;4.15;;
9160;SDS011;4615;51.340;8.288;2023-11-19T14:59:55;12.30;;;4.00;;
9160;SDS011;4615;51.340;8.288;2023-11-19T15:02:22;13.35;;;3.58;;
9160;SDS011;4615;51.340;8.288;2023-11-19T15:04:48;10.90;;;3.85;;
9160;SDS011;4615;51.340;8.288;2023-11-19T15:07:14;9.70;;;3.63;;
9160;SDS011;4615;51.340;8.288;2023-11-19T15:09:41;13.35;;;4.00;;
9160;SDS011;4615;51.340;8.288;2023-11-19T15:12:07;13.52;;;4.28;;